createdAt,value
2017-09-24T00:00:17.471Z,16.77
2017-09-24T00:02:45.814Z,16.40
2017-09-24T00:05:15.130Z,16.47
2017-09-24T00:07:44.243Z,13.83
2017-09-24T00:10:13.313Z,14.90
2017-09-24T00:12:42.434Z,14.70
2017-09-24T00:15:10.747Z,13.47
2017-09-24T00:17:39.048Z,15.57
2017-09-24T00:20:08.260Z,13.60
2017-09-24T00:22:37.348Z,14.77
2017-09-24T00:25:06.476Z,13.80
2017-09-24T00:27:34.795Z,11.70
2017-09-24T00:30:03.125Z,13.43
2017-09-24T00:32:31.481Z,13.77
2017-09-24T00:34:59.782Z,14.10
2017-09-24T00:37:28.848Z,15.60
2017-09-24T00:39:57.196Z,13.00
2017-09-24T00:42:25.499Z,15.07
2017-09-24T00:44:53.807Z,13.90
2017-09-24T00:47:22.887Z,12.60
2017-09-24T00:49:51.980Z,13.80
2017-09-24T00:52:20.292Z,14.07
2017-09-24T00:54:48.659Z,15.33
2017-09-24T00:57:16.974Z,13.60
2017-09-24T00:59:45.298Z,13.73
2017-09-24T01:02:13.639Z,16.10
2017-09-24T01:04:42.015Z,15.03
2017-09-24T01:07:10.310Z,17.17
2017-09-24T01:09:38.645Z,16.33
2017-09-24T01:12:06.966Z,19.10
2017-09-24T01:14:35.256Z,18.53
2017-09-24T01:17:03.592Z,18.53
2017-09-24T01:19:31.949Z,19.00
2017-09-24T01:22:00.242Z,22.13
2017-09-24T01:24:28.562Z,19.63
2017-09-24T01:26:56.916Z,21.03
2017-09-24T01:29:25.240Z,20.17
2017-09-24T01:31:53.575Z,17.53
2017-09-24T01:34:22.653Z,19.27
2017-09-24T01:36:50.964Z,17.20
2017-09-24T01:39:20.069Z,16.57
2017-09-24T01:41:48.418Z,19.33
2017-09-24T01:44:16.815Z,18.30
2017-09-24T01:46:45.884Z,17.50
2017-09-24T01:49:14.240Z,18.00
2017-09-24T01:51:42.533Z,19.20
2017-09-24T01:54:10.845Z,16.70
2017-09-24T01:56:39.176Z,17.10
2017-09-24T01:59:07.529Z,17.00
2017-09-24T02:01:35.818Z,19.43
2017-09-24T02:04:04.125Z,20.40
2017-09-24T02:06:33.251Z,18.60
2017-09-24T02:09:02.305Z,15.93
2017-09-24T02:11:30.605Z,17.87
2017-09-24T02:13:59.726Z,15.87
2017-09-24T02:16:28.073Z,16.00
2017-09-24T02:18:56.395Z,18.37
2017-09-24T02:21:24.723Z,17.20
2017-09-24T02:23:53.850Z,17.10
2017-09-24T02:26:22.151Z,17.73
2017-09-24T02:28:50.467Z,17.20
2017-09-24T02:31:18.820Z,18.00
2017-09-24T02:33:47.143Z,16.57
2017-09-24T02:36:15.454Z,17.20
2017-09-24T02:38:43.791Z,16.30
2017-09-24T02:41:12.130Z,17.13
2017-09-24T02:43:40.435Z,17.50
2017-09-24T02:46:08.731Z,16.80
2017-09-24T02:48:37.074Z,18.90
2017-09-24T02:51:06.204Z,16.50
2017-09-24T02:53:34.546Z,16.67
2017-09-24T02:56:03.668Z,19.10
2017-09-24T02:58:32.790Z,16.60
2017-09-24T03:01:01.100Z,17.83
2017-09-24T03:03:29.416Z,16.47
2017-09-24T03:05:57.754Z,19.87
2017-09-24T03:08:26.912Z,17.83
2017-09-24T03:10:55.238Z,17.27
2017-09-24T03:13:24.375Z,19.60
2017-09-24T03:15:52.741Z,17.83
2017-09-24T03:18:21.070Z,19.27
2017-09-24T03:20:49.395Z,17.40
2017-09-24T03:23:17.771Z,16.60
2017-09-24T03:25:46.115Z,18.07
2017-09-24T03:28:15.239Z,17.37
2017-09-24T03:30:43.566Z,19.77
2017-09-24T03:33:11.910Z,18.10
2017-09-24T03:35:40.276Z,16.80
2017-09-24T03:38:08.632Z,16.97
2017-09-24T03:40:37.018Z,19.50
2017-09-24T03:43:05.349Z,16.73
2017-09-24T03:45:33.704Z,17.93
2017-09-24T03:48:02.010Z,15.37
2017-09-24T03:50:30.339Z,17.50
2017-09-24T03:52:58.714Z,16.90
2017-09-24T03:55:27.046Z,16.60
2017-09-24T03:57:55.363Z,17.30
2017-09-24T04:00:23.694Z,16.33
2017-09-24T04:02:52.016Z,17.47
2017-09-24T04:05:20.345Z,19.00
2017-09-24T04:07:48.684Z,17.53
2017-09-24T04:10:17.012Z,18.50
2017-09-24T04:12:45.350Z,17.43
2017-09-24T04:15:13.677Z,17.27
2017-09-24T04:17:42.798Z,16.87
2017-09-24T04:20:11.169Z,19.97
2017-09-24T04:22:39.581Z,19.57
2017-09-24T04:25:07.927Z,17.60
2017-09-24T04:27:37.003Z,19.00
2017-09-24T04:30:05.345Z,18.30
2017-09-24T04:32:33.650Z,19.07
2017-09-24T04:35:02.780Z,16.17
2017-09-24T04:37:31.152Z,17.60
2017-09-24T04:39:59.755Z,19.20
2017-09-24T04:42:28.816Z,17.70
2017-09-24T04:44:57.147Z,16.93
2017-09-24T04:47:25.442Z,18.47
2017-09-24T04:49:53.868Z,16.77
2017-09-24T04:52:22.227Z,17.70
2017-09-24T04:54:51.654Z,19.13
2017-09-24T04:57:19.964Z,18.63
2017-09-24T04:59:48.411Z,19.87
2017-09-24T05:02:16.719Z,21.73
2017-09-24T05:04:45.083Z,18.10
2017-09-24T05:07:13.422Z,16.47
2017-09-24T05:09:42.501Z,18.07
2017-09-24T05:12:10.848Z,17.00
2017-09-24T05:14:39.162Z,16.10
2017-09-24T05:17:07.554Z,17.20
2017-09-24T05:19:35.941Z,15.97
2017-09-24T05:22:05.041Z,15.90
2017-09-24T05:24:33.386Z,16.83
2017-09-24T05:27:02.728Z,14.67
2017-09-24T05:29:31.082Z,17.20
2017-09-24T05:31:59.466Z,15.67
2017-09-24T05:34:28.539Z,16.10
2017-09-24T05:36:57.756Z,15.90
2017-09-24T05:39:26.112Z,17.43
2017-09-24T05:41:55.343Z,17.90
2017-09-24T05:44:23.663Z,15.80
2017-09-24T05:46:52.001Z,17.80
2017-09-24T06:02:26.838Z,16.53
2017-09-24T06:04:55.166Z,19.50
2017-09-24T06:07:23.458Z,19.97
2017-09-24T06:09:51.799Z,17.77
2017-09-24T06:12:20.142Z,18.20
2017-09-24T06:14:48.590Z,18.53
2017-09-24T06:17:16.890Z,18.00
2017-09-24T06:19:45.238Z,17.77
2017-09-24T06:22:14.342Z,18.83
2017-09-24T06:24:43.393Z,18.63
2017-09-24T06:27:11.723Z,18.03
2017-09-24T06:29:40.012Z,18.10
2017-09-24T06:32:08.294Z,16.77
2017-09-24T06:34:36.664Z,15.97
2017-09-24T06:37:04.979Z,18.47
2017-09-24T06:39:33.291Z,18.30
2017-09-24T06:42:01.667Z,15.37
2017-09-24T06:44:30.040Z,17.47
2017-09-24T06:46:59.394Z,18.60
2017-09-24T06:49:27.690Z,16.70
2017-09-24T06:51:56.054Z,18.80
2017-09-24T06:54:24.473Z,18.10
2017-09-24T06:56:53.680Z,17.50
2017-09-24T06:59:22.858Z,17.00
2017-09-24T07:01:51.943Z,17.60
2017-09-24T07:04:21.063Z,18.10
2017-09-24T07:06:49.391Z,16.87
2017-09-24T07:09:17.722Z,17.50
2017-09-24T07:11:46.070Z,17.77
2017-09-24T07:14:14.383Z,18.13
2017-09-24T07:16:42.690Z,18.33
2017-09-24T07:19:11.024Z,18.30
2017-09-24T07:21:39.348Z,17.03
2017-09-24T07:24:07.691Z,20.30
2017-09-24T07:26:36.010Z,19.47
2017-09-24T07:29:04.299Z,20.23
2017-09-24T07:31:32.650Z,20.47
2017-09-24T07:34:00.949Z,20.90
2017-09-24T07:36:29.252Z,21.93
2017-09-24T07:38:58.360Z,23.13
2017-09-24T07:41:26.684Z,21.23
2017-09-24T07:43:54.981Z,21.80
2017-09-24T07:46:23.333Z,20.97
2017-09-24T07:48:51.667Z,22.20
2017-09-24T07:51:20.003Z,22.77
2017-09-24T07:53:49.830Z,23.13
2017-09-24T07:56:18.155Z,22.30
2017-09-24T07:58:46.527Z,22.50
2017-09-24T08:01:14.841Z,24.20
2017-09-24T08:03:43.199Z,22.30
2017-09-24T08:06:11.482Z,24.10
2017-09-24T08:08:40.242Z,25.40
2017-09-24T08:11:08.576Z,22.93
2017-09-24T08:13:37.662Z,24.27
2017-09-24T08:16:06.010Z,23.63
2017-09-24T08:18:34.354Z,24.00
2017-09-24T08:21:02.702Z,23.77
2017-09-24T08:23:31.043Z,24.00
2017-09-24T08:25:59.342Z,20.90
2017-09-24T08:28:27.659Z,24.00
2017-09-24T08:30:55.999Z,23.90
2017-09-24T08:33:24.311Z,24.47
2017-09-24T08:35:52.670Z,21.83
2017-09-24T08:38:21.870Z,22.40
2017-09-24T08:40:50.202Z,22.13
2017-09-24T08:43:18.631Z,22.10
2017-09-24T08:45:47.707Z,20.63
2017-09-24T08:48:16.050Z,21.47
2017-09-24T08:50:44.382Z,19.10
2017-09-24T08:53:13.438Z,17.80
2017-09-24T08:55:41.747Z,20.47
2017-09-24T08:58:10.096Z,18.90
2017-09-24T09:00:38.443Z,17.37
2017-09-24T09:03:06.819Z,18.47
2017-09-24T09:05:35.147Z,17.60
2017-09-24T09:08:03.451Z,20.40
2017-09-24T09:10:31.821Z,17.67
2017-09-24T09:13:00.896Z,17.67
2017-09-24T09:15:29.199Z,19.17
2017-09-24T09:17:57.549Z,19.27
2017-09-24T09:20:25.893Z,15.23
2017-09-24T09:22:54.192Z,18.80
2017-09-24T09:25:22.506Z,19.10
2017-09-24T09:27:51.615Z,19.13
2017-09-24T09:30:19.922Z,19.30
2017-09-24T09:32:48.255Z,19.40
2017-09-24T09:35:16.690Z,20.53
2017-09-24T09:37:45.017Z,16.27
2017-09-24T09:40:13.331Z,16.90
2017-09-24T09:42:41.657Z,18.30
2017-09-24T09:45:18.693Z,17.17
2017-09-24T09:47:47.112Z,18.07
2017-09-24T09:50:16.189Z,15.20
2017-09-24T09:52:44.569Z,17.03
2017-09-24T09:55:12.875Z,16.63
2017-09-24T09:57:41.211Z,16.37
2017-09-24T10:00:09.515Z,12.63
2017-09-24T10:02:37.837Z,16.20
2017-09-24T10:05:06.119Z,15.80
2017-09-24T10:21:08.435Z,14.00
2017-09-24T10:23:36.741Z,16.60
2017-09-24T10:26:05.090Z,15.90
2017-09-24T10:28:46.178Z,15.60
2017-09-24T10:31:26.491Z,14.90
2017-09-24T10:33:55.585Z,14.00
2017-09-24T10:36:23.906Z,14.50
2017-09-24T10:38:52.207Z,14.93
2017-09-24T10:41:20.546Z,16.93
2017-09-24T10:43:49.755Z,17.77
2017-09-24T10:46:18.100Z,16.90
2017-09-24T10:48:47.187Z,16.07
2017-09-24T10:51:15.803Z,16.43
2017-09-24T10:53:44.131Z,15.27
2017-09-24T10:56:12.442Z,14.70
2017-09-24T10:58:41.553Z,16.43
2017-09-24T11:01:10.615Z,14.50
2017-09-24T11:03:39.729Z,19.00
2017-09-24T11:06:08.178Z,14.17
2017-09-24T11:08:36.517Z,15.60
2017-09-24T11:11:04.810Z,15.33
2017-09-24T11:13:33.246Z,14.33
2017-09-24T11:16:01.581Z,21.60
2017-09-24T11:18:29.871Z,14.30
2017-09-24T11:20:59.024Z,12.77
2017-09-24T11:23:27.328Z,11.97
2017-09-24T11:25:56.415Z,11.93
2017-09-24T11:28:24.735Z,9.60
2017-09-24T11:30:53.931Z,10.20
2017-09-24T11:33:22.998Z,8.50
2017-09-24T11:35:51.315Z,9.73
2017-09-24T11:38:19.661Z,9.57
2017-09-24T11:40:47.938Z,9.13
2017-09-24T11:43:16.256Z,9.50
2017-09-24T11:45:45.307Z,12.13
2017-09-24T11:48:13.639Z,35.97
2017-09-24T11:50:41.928Z,13.37
2017-09-24T11:53:10.275Z,21.63
2017-09-24T11:55:38.598Z,9.33
2017-09-24T11:58:07.063Z,10.37
2017-09-24T12:00:35.367Z,11.60
2017-09-24T12:03:03.674Z,9.30
2017-09-24T12:05:32.023Z,8.23
2017-09-24T12:08:00.313Z,9.43
2017-09-24T12:10:29.627Z,8.33
2017-09-24T12:12:58.827Z,8.40
2017-09-24T12:15:27.138Z,8.30
2017-09-24T12:17:55.439Z,11.23
2017-09-24T12:20:24.546Z,9.60
2017-09-24T12:22:53.632Z,9.27
2017-09-24T12:25:21.947Z,8.73
2017-09-24T12:27:51.016Z,7.80
2017-09-24T12:30:19.363Z,7.83
2017-09-24T12:32:47.682Z,8.00
2017-09-24T12:35:16.031Z,9.70
2017-09-24T12:37:44.449Z,8.47
2017-09-24T12:40:13.651Z,9.00
2017-09-24T12:42:41.976Z,8.27
2017-09-24T12:45:10.359Z,9.13
2017-09-24T12:47:38.689Z,9.33
2017-09-24T12:50:07.003Z,8.80
2017-09-24T12:52:35.327Z,9.10
2017-09-24T12:55:03.657Z,8.63
2017-09-24T12:57:31.998Z,9.50
2017-09-24T13:00:00.309Z,8.90
2017-09-24T13:02:29.407Z,8.87
2017-09-24T13:04:57.710Z,9.37
2017-09-24T13:07:26.029Z,8.33
2017-09-24T13:09:54.339Z,8.27
2017-09-24T13:12:22.800Z,8.30
2017-09-24T13:14:51.130Z,7.90
2017-09-24T13:17:20.215Z,8.63
2017-09-24T13:19:48.543Z,9.00
2017-09-24T13:22:16.856Z,8.23
2017-09-24T13:24:45.190Z,8.00
2017-09-24T13:27:13.471Z,8.80
2017-09-24T13:29:41.919Z,10.00
2017-09-24T13:32:10.989Z,8.47
2017-09-24T13:34:39.287Z,8.83
2017-09-24T13:37:07.645Z,10.27
2017-09-24T13:39:35.955Z,13.70
2017-09-24T13:42:04.632Z,10.17
2017-09-24T13:44:32.954Z,8.43
2017-09-24T13:47:01.265Z,8.37
2017-09-24T13:49:29.597Z,9.83
2017-09-24T13:51:57.896Z,8.67
2017-09-24T13:54:26.218Z,8.63
2017-09-24T13:56:54.535Z,9.70
2017-09-24T13:59:22.859Z,14.40
2017-09-24T14:01:51.942Z,11.67
2017-09-24T14:04:21.052Z,15.00
2017-09-24T14:06:50.127Z,9.43
2017-09-24T14:09:19.225Z,9.17
2017-09-24T14:11:47.525Z,8.30
2017-09-24T14:14:15.846Z,8.43
2017-09-24T14:16:44.174Z,7.93
2017-09-24T14:19:12.530Z,11.97
2017-09-24T14:21:40.828Z,8.97
2017-09-24T14:24:09.903Z,7.40
2017-09-24T14:26:38.195Z,9.60
2017-09-24T14:29:07.290Z,9.43
2017-09-24T14:31:36.387Z,10.23
2017-09-24T14:34:04.720Z,9.23
2017-09-24T14:36:33.034Z,9.87
2017-09-24T14:39:01.362Z,15.17
2017-09-24T14:41:31.221Z,11.00
2017-09-24T14:44:00.315Z,10.80
2017-09-24T14:46:29.453Z,7.53
2017-09-24T14:48:57.773Z,10.20
2017-09-24T14:51:26.098Z,7.83
2017-09-24T14:53:54.415Z,9.60
2017-09-24T14:56:22.732Z,9.40
2017-09-24T14:58:51.795Z,8.07
2017-09-24T15:01:20.899Z,9.37
2017-09-24T15:03:49.187Z,9.20
2017-09-24T15:06:17.515Z,9.03
2017-09-24T15:08:45.810Z,10.47
2017-09-24T15:11:14.155Z,9.77
2017-09-24T15:13:42.600Z,9.00
2017-09-24T15:16:12.008Z,15.87
2017-09-24T15:18:40.342Z,16.03
2017-09-24T15:21:09.444Z,13.97
2017-09-24T15:23:37.780Z,14.20
2017-09-24T15:26:06.085Z,11.17
2017-09-24T15:28:34.432Z,12.60
2017-09-24T15:31:02.738Z,14.47
2017-09-24T15:33:31.073Z,19.80
2017-09-24T15:35:59.373Z,9.80
2017-09-24T15:38:27.694Z,9.67
2017-09-24T15:40:56.947Z,12.57
2017-09-24T15:43:25.368Z,11.67
2017-09-24T15:45:53.678Z,13.50
2017-09-24T15:48:21.983Z,12.53
2017-09-24T15:50:50.332Z,11.00
2017-09-24T15:53:19.391Z,13.10
2017-09-24T15:55:47.748Z,11.70
2017-09-24T15:58:16.081Z,10.70
2017-09-24T16:00:44.607Z,13.67
2017-09-24T16:03:12.913Z,12.40
2017-09-24T16:05:42.785Z,12.37
2017-09-24T16:08:11.926Z,12.60
2017-09-24T16:10:40.258Z,12.87
2017-09-24T16:13:08.605Z,12.50
2017-09-24T16:15:36.903Z,13.97
2017-09-24T16:18:05.231Z,11.70
2017-09-24T16:20:33.522Z,13.30
2017-09-24T16:23:02.608Z,12.00
2017-09-24T16:25:30.999Z,12.67
2017-09-24T16:27:59.347Z,12.90
2017-09-24T16:30:27.875Z,13.10
2017-09-24T16:32:56.202Z,11.27
2017-09-24T16:35:25.307Z,13.00
2017-09-24T16:37:54.735Z,14.30
2017-09-24T16:40:23.064Z,13.30
2017-09-24T16:42:52.165Z,13.73
2017-09-24T16:45:20.502Z,13.83
2017-09-24T16:47:48.822Z,15.47
2017-09-24T16:50:17.155Z,15.50
2017-09-24T16:52:45.479Z,15.43
2017-09-24T16:55:14.602Z,18.00
2017-09-24T16:57:43.662Z,14.53
2017-09-24T17:00:12.005Z,16.37
2017-09-24T17:02:40.311Z,15.13
2017-09-24T17:05:09.427Z,16.80
2017-09-24T17:07:38.518Z,18.13
2017-09-24T17:10:07.793Z,16.13
2017-09-24T17:12:36.094Z,19.40
2017-09-24T17:15:04.395Z,19.37
2017-09-24T17:17:32.742Z,19.93
2017-09-24T17:20:01.148Z,20.70
2017-09-24T17:22:31.066Z,23.00
2017-09-24T17:25:00.123Z,23.70
2017-09-24T17:27:29.247Z,23.03
2017-09-24T17:29:57.587Z,20.27
2017-09-24T17:32:25.931Z,22.50
2017-09-24T17:34:54.257Z,22.33
2017-09-24T17:37:22.586Z,23.67
2017-09-24T17:39:50.899Z,25.20
2017-09-24T17:42:19.237Z,28.47
2017-09-24T17:44:47.521Z,34.10
2017-09-24T17:47:15.867Z,32.33
2017-09-24T17:49:44.168Z,29.20
2017-09-24T17:52:12.932Z,30.60
2017-09-24T17:54:41.994Z,28.97
2017-09-24T17:57:10.301Z,28.43
2017-09-24T17:59:39.386Z,29.50
2017-09-24T18:02:07.717Z,29.33
2017-09-24T18:04:36.075Z,30.57
2017-09-24T18:07:04.394Z,29.73
2017-09-24T18:09:32.730Z,32.67
2017-09-24T18:12:01.019Z,30.60
2017-09-24T18:14:29.354Z,28.80
2017-09-24T18:16:57.685Z,30.87
2017-09-24T18:19:26.033Z,31.00
2017-09-24T18:21:54.352Z,32.00
2017-09-24T18:24:22.691Z,33.60
2017-09-24T18:26:51.004Z,32.20
2017-09-24T18:29:19.716Z,32.50
2017-09-24T18:31:48.061Z,31.23
2017-09-24T18:34:16.362Z,32.07
2017-09-24T18:36:45.470Z,31.73
2017-09-24T18:39:13.817Z,31.57
2017-09-24T18:41:42.169Z,33.37
2017-09-24T18:44:10.481Z,34.57
2017-09-24T18:46:38.818Z,35.13
2017-09-24T18:49:07.130Z,35.10
2017-09-24T18:51:35.484Z,33.50
2017-09-24T18:54:03.789Z,34.30
2017-09-24T18:56:32.099Z,38.97
2017-09-24T18:59:00.450Z,37.17
2017-09-24T19:01:29.675Z,36.90
2017-09-24T19:03:57.990Z,36.70
2017-09-24T19:06:26.304Z,36.40
2017-09-24T19:08:55.398Z,37.60
2017-09-24T19:11:24.485Z,35.60
2017-09-24T19:13:52.810Z,35.40
2017-09-24T19:16:21.172Z,39.87
2017-09-24T19:18:49.523Z,39.90
2017-09-24T19:21:17.880Z,39.40
2017-09-24T19:23:46.205Z,40.47
2017-09-24T19:26:15.270Z,37.43
2017-09-24T19:28:44.419Z,41.47
2017-09-24T19:31:12.731Z,39.77
2017-09-24T19:33:41.087Z,40.30
2017-09-24T19:36:09.423Z,41.50
2017-09-24T19:38:38.020Z,40.10
2017-09-24T19:41:06.333Z,38.90
2017-09-24T19:43:34.657Z,38.50
2017-09-24T19:46:03.004Z,42.77
2017-09-24T19:48:32.113Z,40.00
2017-09-24T19:51:01.205Z,37.63
2017-09-24T19:53:30.289Z,39.73
2017-09-24T19:56:00.103Z,41.83
2017-09-24T19:58:28.415Z,38.90
2017-09-24T20:00:56.778Z,39.60
2017-09-24T20:03:25.861Z,37.90
2017-09-24T20:05:54.173Z,40.17
2017-09-24T20:08:22.499Z,39.50
2017-09-24T20:10:50.846Z,40.90
2017-09-24T20:13:19.125Z,39.20
2017-09-24T20:15:47.447Z,39.07
2017-09-24T20:18:16.535Z,39.23
2017-09-24T20:20:45.015Z,41.37
2017-09-24T20:23:13.319Z,40.10
2017-09-24T20:25:41.627Z,40.30
2017-09-24T20:28:09.963Z,40.80
2017-09-24T20:30:39.029Z,41.30
2017-09-24T20:33:07.371Z,42.70
2017-09-24T20:35:35.663Z,41.97
2017-09-24T20:38:04.000Z,37.90
2017-09-24T20:40:32.306Z,40.90
2017-09-24T20:43:00.644Z,41.60
2017-09-24T20:45:29.715Z,43.63
2017-09-24T20:47:58.191Z,43.27
2017-09-24T20:50:27.292Z,40.40
2017-09-24T20:52:55.625Z,42.27
2017-09-24T20:55:23.982Z,40.43
2017-09-24T20:57:52.295Z,42.00
2017-09-24T21:00:20.643Z,41.40
2017-09-24T21:02:48.945Z,41.37
2017-09-24T21:05:17.268Z,45.33
2017-09-24T21:07:46.346Z,40.73
2017-09-24T21:10:15.546Z,42.20
2017-09-24T21:12:44.618Z,43.40
2017-09-24T21:15:12.953Z,43.40
2017-09-24T21:17:41.279Z,43.63
2017-09-24T21:20:09.602Z,42.07
2017-09-24T21:22:37.947Z,43.33
2017-09-24T21:25:07.021Z,43.30
2017-09-24T21:27:35.350Z,44.17
2017-09-24T21:30:03.669Z,44.30
2017-09-24T21:32:32.004Z,45.30
2017-09-24T21:35:01.052Z,40.20
2017-09-24T21:37:30.182Z,43.03
2017-09-24T21:39:58.511Z,40.43
2017-09-24T21:42:26.852Z,42.90
2017-09-24T21:44:55.166Z,42.47
2017-09-24T21:47:23.613Z,42.13
2017-09-24T21:49:51.932Z,45.20
2017-09-24T21:52:20.249Z,45.03
2017-09-24T21:54:48.561Z,42.60
2017-09-24T21:57:16.866Z,45.83
2017-09-24T21:59:45.179Z,42.60
2017-09-24T22:02:13.494Z,43.87
2017-09-24T22:04:41.822Z,46.40
2017-09-24T22:07:10.896Z,44.27
2017-09-24T22:09:39.224Z,45.53
2017-09-24T22:12:07.541Z,47.83
2017-09-24T22:14:35.872Z,43.17
2017-09-24T22:17:04.187Z,44.40
2017-09-24T22:19:32.512Z,42.47
2017-09-24T22:22:00.853Z,42.27
2017-09-24T22:24:29.951Z,42.70
2017-09-24T22:26:59.050Z,44.67
2017-09-24T22:29:28.142Z,43.83
2017-09-24T22:31:57.239Z,40.93
2017-09-24T22:34:26.326Z,41.33
2017-09-24T22:36:54.642Z,45.23
2017-09-24T22:39:22.950Z,37.37
2017-09-24T22:41:51.279Z,39.23
2017-09-24T22:44:19.574Z,37.30
2017-09-24T22:46:48.136Z,37.30
2017-09-24T22:49:16.459Z,39.73
2017-09-24T22:51:44.778Z,41.87
2017-09-24T22:54:13.138Z,39.00
2017-09-24T22:56:41.673Z,37.90
2017-09-24T22:59:10.024Z,41.93
2017-09-24T23:01:39.091Z,40.13
2017-09-24T23:04:07.426Z,39.07
2017-09-24T23:06:35.733Z,40.50
2017-09-24T23:09:04.050Z,38.80
2017-09-24T23:11:32.406Z,40.57
2017-09-24T23:14:00.716Z,40.03
2017-09-24T23:16:29.797Z,40.83
2017-09-24T23:18:58.866Z,41.63
2017-09-24T23:21:27.191Z,39.20
2017-09-24T23:23:56.243Z,38.60
2017-09-24T23:26:24.683Z,40.70
2017-09-24T23:28:52.984Z,38.73
2017-09-24T23:31:22.082Z,40.77
2017-09-24T23:33:50.401Z,41.20
2017-09-24T23:36:18.720Z,39.30
2017-09-24T23:38:47.054Z,40.50
2017-09-24T23:41:16.107Z,43.70
2017-09-24T23:43:44.453Z,43.13
2017-09-24T23:46:12.771Z,40.30
2017-09-24T23:48:41.108Z,41.13
2017-09-24T23:51:09.418Z,43.77
2017-09-24T23:53:38.128Z,41.37
2017-09-24T23:56:06.574Z,43.10
2017-09-24T23:58:34.882Z,41.07
